Time;durP1;ratioP1;P1;durP2;ratioP2;P2;SDS_P1;SDS_P2;PMS_P1;PMS_P2;Temp;Humidity;BMP_temperature;BMP_pressure;BME280_temperature;BME280_humidity;BME280_pressure;Samples;Min_cycle;Max_cycle;Signal;HPM_P1;HPM_P2
2022/06/23 00:00:07;;;;;;;10.35;4.45;;;14.90;99.90;;;;;;4958852;28;64830;-72
2022/06/23 00:02:38;;;;;;;9.82;4.78;;;14.90;99.90;;;;;;4946398;28;144659;-71
2022/06/23 00:05:11;;;;;;;9.43;4.28;;;14.90;99.90;;;;;;4941144;28;268837;-71
2022/06/23 00:07:43;;;;;;;12.13;4.70;;;14.90;99.90;;;;;;4915757;28;210123;-71
2022/06/23 00:10:38;;;;;;;9.25;4.15;;;14.80;99.90;;;;;;4945678;28;65496;-71
2022/06/23 00:13:44;;;;;;;10.68;4.05;;;14.80;99.90;;;;;;4924346;28;211178;-71
2022/06/23 00:16:29;;;;;;;10.05;4.30;;;14.80;99.90;;;;;;4855510;29;206088;-70
2022/06/23 00:18:55;;;;;;;8.55;4.25;;;14.70;99.90;;;;;;4923333;29;20055;-71
2022/06/23 00:21:27;;;;;;;9.07;3.95;;;14.70;99.90;;;;;;4877307;28;179534;-72
2022/06/23 00:24:00;;;;;;;9.20;4.38;;;14.70;99.90;;;;;;4925619;29;20062;-71
2022/06/23 00:26:30;;;;;;;10.35;4.72;;;14.70;99.90;;;;;;4867697;28;207644;-72
2022/06/23 00:29:02;;;;;;;9.18;4.25;;;14.70;99.90;;;;;;4921276;29;20063;-71
2022/06/23 00:31:31;;;;;;;9.88;4.88;;;14.60;99.90;;;;;;4853530;29;207020;-71
2022/06/23 00:34:00;;;;;;;9.18;4.55;;;14.60;99.90;;;;;;4926164;29;20052;-71
2022/06/23 00:36:36;;;;;;;9.98;4.70;;;14.60;99.90;;;;;;4850224;29;249557;-71
2022/06/23 00:39:06;;;;;;;11.13;5.07;;;14.50;99.90;;;;;;4926517;29;20536;-71
2022/06/23 00:41:36;;;;;;;10.18;4.95;;;14.50;99.90;;;;;;4857118;29;206499;-71
2022/06/23 00:44:22;;;;;;;9.93;5.13;;;14.50;99.90;;;;;;4927255;29;20058;-71
2022/06/23 00:46:52;;;;;;;10.27;4.82;;;14.50;99.90;;;;;;4866660;28;217310;-71
2022/06/23 00:49:34;;;;;;;10.80;4.90;;;14.40;99.90;;;;;;4880601;29;231963;-71
2022/06/23 00:52:13;;;;;;;9.27;4.68;;;14.40;99.90;;;;;;4850634;28;210811;-71
2022/06/23 00:54:45;;;;;;;10.55;5.00;;;14.30;99.90;;;;;;4963715;28;26825;-72
2022/06/23 00:57:38;;;;;;;11.07;5.15;;;14.30;99.90;;;;;;4925306;28;214334;-72
2022/06/23 01:00:19;;;;;;;9.55;4.80;;;14.30;99.90;;;;;;4978023;28;20074;-71
2022/06/23 01:02:58;;;;;;;9.50;5.03;;;14.30;99.90;;;;;;4918833;28;206536;-71
2022/06/23 01:05:36;;;;;;;9.13;4.43;;;14.20;99.90;;;;;;4899260;28;205419;-71
2022/06/23 01:08:11;;;;;;;10.18;5.00;;;14.20;99.90;;;;;;4968799;28;20059;-70
2022/06/23 01:10:51;;;;;;;10.82;5.30;;;14.20;99.90;;;;;;4904572;28;184788;-72
2022/06/23 01:13:29;;;;;;;9.50;4.97;;;14.10;99.90;;;;;;4965796;28;20069;-70
2022/06/23 01:16:16;;;;;;;10.20;5.43;;;14.10;99.90;;;;;;4904539;28;249515;-70
2022/06/23 01:18:49;;;;;;;10.73;4.70;;;14.10;99.90;;;;;;4959026;28;20138;-71
2022/06/23 01:21:23;;;;;;;11.30;5.57;;;14.00;99.90;;;;;;4915469;28;271021;-71
2022/06/23 01:24:31;;;;;;;11.23;5.55;;;14.00;99.90;;;;;;4964735;28;20055;-71
2022/06/23 01:27:09;;;;;;;10.48;5.53;;;14.00;99.90;;;;;;4872395;28;205522;-71
2022/06/23 01:29:44;;;;;;;14.10;6.32;;;14.00;99.90;;;;;;4917234;28;20513;-71
2022/06/23 01:32:22;;;;;;;12.27;5.88;;;14.00;99.90;;;;;;4899376;28;206513;-71
2022/06/23 01:35:01;;;;;;;12.25;6.10;;;14.00;99.90;;;;;;4925733;28;223312;-70
2022/06/23 01:37:34;;;;;;;11.05;5.90;;;13.90;99.90;;;;;;4872456;28;215279;-70
2022/06/23 01:40:23;;;;;;;10.65;6.28;;;13.90;99.90;;;;;;4940352;28;25141;-70
2022/06/23 01:42:56;;;;;;;10.77;5.70;;;13.90;99.90;;;;;;4876750;29;206789;-70
2022/06/23 01:45:30;;;;;;;11.35;6.07;;;13.90;99.90;;;;;;4882904;28;243917;-69
2022/06/23 01:48:11;;;;;;;10.57;6.05;;;13.90;99.90;;;;;;4919821;29;20077;-70
2022/06/23 01:50:40;;;;;;;11.75;6.50;;;13.80;99.90;;;;;;4881977;28;205588;-71
2022/06/23 01:53:12;;;;;;;11.70;6.57;;;13.80;99.90;;;;;;4916910;28;20165;-71
2022/06/23 01:55:54;;;;;;;12.93;7.28;;;13.80;99.90;;;;;;4877822;29;206747;-71
2022/06/23 01:58:22;;;;;;;14.52;7.45;;;13.80;99.90;;;;;;4953034;28;20050;-71
2022/06/23 02:00:53;;;;;;;12.30;7.15;;;13.70;99.90;;;;;;4908128;28;254912;-71
2022/06/23 02:03:38;;;;;;;12.48;7.15;;;13.70;99.90;;;;;;4983398;28;20365;-70
2022/06/23 02:06:26;;;;;;;13.40;7.75;;;13.70;99.90;;;;;;4902029;28;271586;-70
2022/06/23 02:08:52;;;;;;;13.85;8.10;;;13.70;99.90;;;;;;4973361;28;20118;-71
2022/06/23 02:11:31;;;;;;;13.55;7.95;;;13.60;99.90;;;;;;4922289;28;273135;-70
2022/06/23 02:14:03;;;;;;;14.75;8.38;;;13.60;99.90;;;;;;4976019;28;20085;-70
2022/06/23 02:16:53;;;;;;;14.38;8.75;;;13.60;99.90;;;;;;4907346;28;207760;-70
2022/06/23 02:19:31;;;;;;;13.90;8.68;;;13.50;99.90;;;;;;4953554;28;252251;-70
2022/06/23 02:22:10;;;;;;;16.05;8.68;;;13.50;99.90;;;;;;4905313;28;205379;-69
2022/06/23 02:25:20;;;;;;;15.85;9.00;;;13.50;99.90;;;;;;4953704;28;115034;-71
2022/06/23 02:27:56;;;;;;;14.88;8.88;;;13.50;99.90;;;;;;4875638;28;215863;-71
2022/06/23 02:30:40;;;;;;;15.40;8.98;;;13.50;99.90;;;;;;4914673;28;261660;-70
2022/06/23 02:33:23;;;;;;;15.68;9.15;;;13.50;99.90;;;;;;4975691;28;20043;-69
2022/06/23 02:36:18;;;;;;;14.10;8.48;;;13.40;99.90;;;;;;4907345;28;207803;-69
2022/06/23 02:38:56;;;;;;;14.57;8.52;;;13.40;99.90;;;;;;4957481;28;20050;-70
2022/06/23 02:41:39;;;;;;;17.60;9.23;;;13.40;99.90;;;;;;4897253;28;205473;-70
2022/06/23 02:44:19;;;;;;;15.73;8.50;;;13.40;99.90;;;;;;4972640;28;266887;-69
2022/06/23 02:46:50;;;;;;;15.07;9.25;;;13.40;99.90;;;;;;4897975;28;212339;-70
2022/06/23 02:49:28;;;;;;;15.73;9.02;;;13.30;99.90;;;;;;4956397;28;260477;-71
2022/06/23 02:52:29;;;;;;;14.85;8.73;;;13.40;99.90;;;;;;4931353;28;207440;-71
2022/06/23 02:55:13;;;;;;;14.97;8.60;;;13.40;99.90;;;;;;4952298;28;207430;-70
2022/06/23 02:57:42;;;;;;;18.25;9.55;;;13.30;99.90;;;;;;4941565;28;214630;-69
2022/06/23 03:00:35;;;;;;;15.43;8.90;;;13.30;99.90;;;;;;4971340;28;243550;-69
2022/06/23 03:03:24;;;;;;;18.77;10.10;;;13.30;99.90;;;;;;4890474;28;105157;-70
2022/06/23 03:06:13;;;;;;;17.40;10.15;;;13.30;99.90;;;;;;4893792;28;203795;-70
2022/06/23 03:08:49;;;;;;;20.73;11.57;;;13.30;99.90;;;;;;4982442;28;20073;-70
2022/06/23 03:14:24;;;;;;;19.40;10.75;;;13.30;99.90;;;;;;4950242;28;255542;-69
2022/06/23 03:16:56;;;;;;;17.40;10.45;;;13.30;99.90;;;;;;4943882;28;192464;-70
2022/06/23 03:19:32;;;;;;;18.27;11.87;;;13.20;99.90;;;;;;4959855;28;250705;-70
2022/06/23 03:22:14;;;;;;;18.67;11.20;;;13.20;99.90;;;;;;4944283;28;212257;-70
2022/06/23 03:24:49;;;;;;;18.30;10.75;;;13.20;99.90;;;;;;4956549;28;209710;-69
2022/06/23 03:27:30;;;;;;;19.10;10.50;;;13.20;99.90;;;;;;4906888;28;212162;-71
2022/06/23 03:30:06;;;;;;;19.42;11.45;;;13.20;99.90;;;;;;4968992;28;35587;-70
2022/06/23 03:32:42;;;;;;;18.65;10.70;;;13.30;99.90;;;;;;4948421;28;209541;-70
2022/06/23 03:35:24;;;;;;;18.48;11.23;;;13.30;99.90;;;;;;4962776;28;261243;-70
2022/06/23 03:37:55;;;;;;;17.90;11.20;;;13.30;99.90;;;;;;4925484;28;207894;-69
2022/06/23 03:43:27;;;;;;;20.42;11.75;;;13.30;99.90;;;;;;4978680;28;20043;-70
2022/06/23 03:46:05;;;;;;;18.70;11.00;;;13.30;99.90;;;;;;4921239;28;257673;-70
2022/06/23 03:49:07;;;;;;;18.13;11.50;;;13.30;99.90;;;;;;4977156;28;20054;-70
2022/06/23 03:51:56;;;;;;;19.45;12.05;;;13.30;99.90;;;;;;4807827;29;209321;-69
2022/06/23 03:54:28;;;;;;;18.23;10.65;;;13.30;99.90;;;;;;4886609;29;216660;-70
2022/06/23 03:57:07;;;;;;;17.40;11.10;;;13.40;99.90;;;;;;4847732;29;206581;-70
2022/06/23 04:00:12;;;;;;;16.38;10.07;;;13.40;99.90;;;;;;4894430;29;93252;-70
2022/06/23 04:02:42;;;;;;;20.60;11.90;;;13.50;99.90;;;;;;4860938;29;125937;-70
2022/06/23 04:05:16;;;;;;;19.13;11.13;;;13.50;99.90;;;;;;4883876;29;148552;-71
2022/06/23 04:08:03;;;;;;;16.95;10.55;;;13.50;99.90;;;;;;4859633;29;215628;-71
2022/06/23 04:10:31;;;;;;;16.25;10.73;;;13.60;99.90;;;;;;4825167;29;210963;-70
2022/06/23 04:13:05;;;;;;;20.27;11.52;;;13.60;99.90;;;;;;4894569;29;20048;-70
2022/06/23 04:15:38;;;;;;;19.60;11.67;;;13.70;99.90;;;;;;4843287;29;206099;-70
2022/06/23 04:18:09;;;;;;;23.67;11.75;;;13.70;99.90;;;;;;4895060;29;20067;-70
2022/06/23 04:20:37;;;;;;;17.98;11.32;;;13.80;99.90;;;;;;4847381;29;166479;-70
2022/06/23 04:23:15;;;;;;;19.00;12.13;;;13.80;99.90;;;;;;4909342;29;20044;-70
2022/06/23 04:25:52;;;;;;;17.45;11.10;;;13.90;99.90;;;;;;4857471;29;162307;-70
2022/06/23 04:28:33;;;;;;;16.92;10.98;;;13.90;99.90;;;;;;4954533;28;20382;-70
2022/06/23 04:31:01;;;;;;;19.98;11.00;;;14.00;99.90;;;;;;4926750;28;212840;-71
2022/06/23 04:33:28;;;;;;;17.08;10.85;;;14.00;99.90;;;;;;4979301;28;20094;-71
2022/06/23 04:35:58;;;;;;;18.15;11.75;;;14.10;99.90;;;;;;4917758;28;257536;-69
2022/06/23 04:38:38;;;;;;;17.13;11.05;;;14.10;99.90;;;;;;4986293;28;20364;-71
2022/06/23 04:41:16;;;;;;;16.58;10.75;;;14.20;99.90;;;;;;4910009;28;221090;-71
2022/06/23 04:43:52;;;;;;;18.08;11.57;;;14.20;99.90;;;;;;4981931;28;20050;-71
2022/06/23 04:46:28;;;;;;;17.38;11.35;;;14.30;99.90;;;;;;4925138;28;249994;-71
2022/06/23 04:49:06;;;;;;;16.40;10.43;;;14.30;99.90;;;;;;4976985;28;20059;-70
2022/06/23 04:51:39;;;;;;;18.05;11.10;;;14.40;99.90;;;;;;4925337;28;214995;-71
2022/06/23 04:54:17;;;;;;;18.73;11.00;;;14.40;99.90;;;;;;4959987;28;259035;-70
2022/06/23 04:57:11;;;;;;;16.55;10.02;;;14.50;99.90;;;;;;4943083;28;186487;-71
2022/06/23 04:59:52;;;;;;;16.08;10.20;;;14.60;99.90;;;;;;4951859;28;270799;-70
2022/06/23 05:02:41;;;;;;;16.42;10.30;;;14.70;99.90;;;;;;4930526;28;232231;-71
2022/06/23 05:05:16;;;;;;;17.15;10.02;;;14.70;99.90;;;;;;4945303;28;254756;-70
2022/06/23 05:08:17;;;;;;;18.00;10.43;;;14.80;99.90;;;;;;4919585;28;207380;-70
2022/06/23 05:10:43;;;;;;;;;;;14.80;99.90;;;;;;4841639;29;239208;-70
2022/06/23 05:13:18;;;;;;;16.45;10.13;;;15.00;99.90;;;;;;4911271;29;20085;-70
2022/06/23 05:15:51;;;;;;;15.50;9.90;;;15.00;99.90;;;;;;4857480;29;306844;-71
2022/06/23 05:18:25;;;;;;;15.95;10.50;;;15.10;99.90;;;;;;4906301;29;20051;-70
2022/06/23 05:21:17;;;;;;;17.35;10.52;;;15.20;99.90;;;;;;4863057;28;208495;-70
2022/06/23 05:23:50;;;;;;;16.27;10.10;;;15.30;99.90;;;;;;4929443;29;20398;-72
2022/06/23 05:26:25;;;;;;;16.20;10.75;;;15.30;99.90;;;;;;4867588;29;208144;-70
2022/06/23 05:29:06;;;;;;;15.75;10.43;;;15.40;99.90;;;;;;4919093;29;20540;-70
2022/06/23 05:31:35;;;;;;;16.95;10.15;;;15.50;99.90;;;;;;4852172;29;207665;-71
2022/06/23 05:34:23;;;;;;;17.83;10.18;;;15.60;99.90;;;;;;4913248;29;20070;-72
2022/06/23 05:36:58;;;;;;;16.30;10.27;;;15.70;99.90;;;;;;4848160;29;207026;-71
2022/06/23 05:40:19;;;;;;;17.85;10.40;;;15.80;99.90;;;;;;4907144;29;198052;-71
2022/06/23 05:42:51;;;;;;;14.18;9.15;;;15.90;99.90;;;;;;4851183;29;205689;-70
2022/06/23 05:45:42;;;;;;;15.32;9.68;;;16.00;99.90;;;;;;4852231;29;210578;-69
2022/06/23 05:48:13;;;;;;;;;;;16.20;99.90;;;;;;4895568;29;20435;-71
2022/06/23 05:51:09;;;;;;;16.73;9.60;;;16.30;99.90;;;;;;4864651;28;213170;-70
2022/06/23 05:53:35;;;;;;;15.45;9.07;;;16.60;99.90;;;;;;4908199;29;20054;-70
2022/06/23 05:56:20;;;;;;;16.38;9.35;;;16.80;99.90;;;;;;4851413;29;205613;-71
2022/06/23 05:58:53;;;;;;;13.13;8.23;;;17.00;99.90;;;;;;4906546;29;20067;-70
2022/06/23 06:02:01;;;;;;;15.48;8.77;;;17.20;99.90;;;;;;4843666;28;206700;-69
2022/06/23 06:04:40;;;;;;;13.20;8.38;;;17.50;99.90;;;;;;4877489;29;293461;-69
2022/06/23 06:07:06;;;;;;;13.98;8.57;;;17.70;99.90;;;;;;4841881;29;162148;-69
2022/06/23 06:09:36;;;;;;;14.70;8.60;;;17.90;99.90;;;;;;4895095;29;255599;-67
2022/06/23 06:12:21;;;;;;;14.63;7.13;;;18.10;99.90;;;;;;4870245;29;194291;-67
2022/06/23 06:15:19;;;;;;;13.70;7.45;;;18.40;99.90;;;;;;4899597;29;37274;-67
2022/06/23 06:17:49;;;;;;;13.95;7.53;;;18.60;99.90;;;;;;4831437;29;213784;-67
2022/06/23 06:20:15;;;;;;;11.77;7.35;;;18.70;99.90;;;;;;4934464;28;88107;-67
2022/06/23 06:22:56;;;;;;;11.85;7.10;;;18.90;99.90;;;;;;4939773;28;124767;-68
2022/06/23 06:25:24;;;;;;;13.93;6.85;;;19.10;99.90;;;;;;4902946;28;220558;-68
2022/06/23 06:27:53;;;;;;;16.45;7.07;;;19.40;99.90;;;;;;4951314;28;20054;-68
2022/06/23 06:30:33;;;;;;;11.18;6.72;;;19.60;99.90;;;;;;4916495;28;122297;-68
2022/06/23 06:33:00;;;;;;;;;;;19.80;99.90;;;;;;4940714;28;20057;-68
2022/06/23 06:35:36;;;;;;;12.45;6.30;;;20.00;99.90;;;;;;4892699;28;233293;-68
2022/06/23 06:38:08;;;;;;;13.50;6.90;;;20.20;99.90;;;;;;4966916;28;20050;-68
2022/06/23 06:40:36;;;;;;;12.68;6.80;;;20.40;99.90;;;;;;4921662;28;273225;-68
2022/06/23 06:43:06;;;;;;;13.85;6.30;;;20.60;99.90;;;;;;4977874;28;20050;-68
2022/06/23 06:45:36;;;;;;;14.05;6.68;;;20.70;99.90;;;;;;4915812;28;284476;-68
2022/06/23 06:48:08;;;;;;;13.38;6.40;;;20.90;99.90;;;;;;4965443;28;20059;-68
2022/06/23 06:50:41;;;;;;;13.02;5.97;;;21.10;99.90;;;;;;4927420;28;209047;-67
2022/06/23 06:53:20;;;;;;;11.93;6.45;;;21.40;99.90;;;;;;4984668;28;20439;-67
2022/06/23 06:55:52;;;;;;;14.32;5.97;;;21.60;99.90;;;;;;4920557;28;263696;-67
2022/06/23 06:58:33;;;;;;;12.15;5.72;;;21.80;99.90;;;;;;4975271;28;20365;-67
2022/06/23 07:01:06;;;;;;;13.02;5.72;;;22.10;99.90;;;;;;4923876;28;261469;-68
2022/06/23 07:03:35;;;;;;;10.32;5.05;;;22.30;99.90;;;;;;4969815;28;20063;-68
2022/06/23 07:06:24;;;;;;;13.93;5.70;;;22.50;99.90;;;;;;4884566;28;229478;-69
2022/06/23 07:09:31;;;;;;;11.57;5.60;;;22.80;99.90;;;;;;4971611;28;20335;-68
2022/06/23 07:12:12;;;;;;;10.32;5.32;;;23.00;99.90;;;;;;4877493;28;206041;-68
2022/06/23 07:15:05;;;;;;;10.98;5.57;;;23.20;99.90;;;;;;4937312;28;62038;-68
2022/06/23 07:17:43;;;;;;;11.68;4.70;;;23.40;99.90;;;;;;4885863;28;210902;-68
2022/06/23 07:20:12;;;;;;;9.88;4.45;;;23.70;99.90;;;;;;4915205;29;246251;-69
2022/06/23 07:23:08;;;;;;;12.70;5.22;;;23.90;99.90;;;;;;4895818;29;171730;-69
2022/06/23 07:25:40;;;;;;;9.50;4.90;;;24.30;99.90;;;;;;4889846;28;215646;-67
2022/06/23 07:28:18;;;;;;;11.32;4.95;;;24.90;99.90;;;;;;4944500;28;20063;-68
2022/06/23 07:30:57;;;;;;;9.50;5.05;;;25.60;99.90;;;;;;4889491;28;206239;-68
2022/06/23 07:33:34;;;;;;;10.60;5.05;;;25.70;99.50;;;;;;4953365;28;20035;-68
2022/06/23 07:36:18;;;;;;;11.90;4.25;;;25.60;98.40;;;;;;4884811;28;262587;-69
2022/06/23 07:38:57;;;;;;;9.07;4.25;;;25.70;98.20;;;;;;4950796;28;20568;-69
2022/06/23 07:41:38;;;;;;;9.95;4.97;;;25.80;98.10;;;;;;4878037;28;214720;-68
2022/06/23 07:44:17;;;;;;;10.35;4.65;;;26.00;96.90;;;;;;4941923;28;20115;-68
2022/06/23 07:46:43;;;;;;;9.43;4.43;;;26.10;96.80;;;;;;4880070;28;105950;-68
2022/06/23 07:49:09;;;;;;;9.55;4.07;;;26.20;96.80;;;;;;4942142;28;276165;-69
2022/06/23 07:51:37;;;;;;;9.93;4.00;;;26.40;96.10;;;;;;4919273;28;214083;-69
2022/06/23 07:54:05;;;;;;;11.25;4.35;;;26.70;95.50;;;;;;4965788;28;20061;-69
2022/06/23 07:56:34;;;;;;;8.38;4.03;;;26.90;94.60;;;;;;4917335;28;209500;-69
2022/06/23 07:59:17;;;;;;;8.27;3.38;;;27.00;94.10;;;;;;4974557;28;20058;-69
2022/06/23 08:01:55;;;;;;;9.30;3.60;;;27.10;93.10;;;;;;4929186;28;206494;-69
2022/06/23 08:04:41;;;;;;;9.43;3.38;;;27.40;92.10;;;;;;4939900;28;271287;-69
2022/06/23 08:07:09;;;;;;;13.32;4.00;;;27.60;91.40;;;;;;4916647;28;207003;-69
2022/06/23 08:09:49;;;;;;;8.45;3.10;;;27.70;91.50;;;;;;4950174;28;271194;-68
2022/06/23 08:12:55;;;;;;;7.85;3.22;;;28.10;90.10;;;;;;4934539;28;148344;-68
2022/06/23 08:18:52;;;;;;;10.88;3.58;;;28.40;84.90;;;;;;4973596;28;20054;-69
2022/06/23 08:21:24;;;;;;;;;;;28.50;82.50;;;;;;4919035;28;278641;-68
2022/06/23 08:24:02;;;;;;;10.82;3.58;;;28.60;75.50;;;;;;4964765;28;20039;-69
2022/06/23 08:26:30;;;;;;;10.00;3.50;;;28.70;81.60;;;;;;4915869;28;207207;-69
2022/06/23 08:29:01;;;;;;;10.20;3.42;;;29.00;80.80;;;;;;4971832;28;20049;-69
2022/06/23 08:31:31;;;;;;;8.23;3.08;;;29.20;75.90;;;;;;4915601;28;257721;-69
2022/06/23 08:34:00;;;;;;;10.13;3.05;;;29.40;75.70;;;;;;4978911;28;20047;-69
2022/06/23 08:36:41;;;;;;;8.53;2.70;;;29.60;74.30;;;;;;4920412;28;259396;-69
2022/06/23 08:39:21;;;;;;;8.38;2.83;;;29.80;73.10;;;;;;4947926;28;245367;-69
2022/06/23 08:42:09;;;;;;;9.27;2.90;;;30.00;70.20;;;;;;4942500;28;206918;-69
2022/06/23 08:45:05;;;;;;;10.38;2.75;;;30.30;68.80;;;;;;4947431;28;266347;-69
2022/06/23 08:47:43;;;;;;;8.85;2.88;;;30.40;68.40;;;;;;4930919;28;205306;-70
2022/06/23 08:50:35;;;;;;;9.80;2.70;;;30.70;67.30;;;;;;4964331;28;263828;-70
2022/06/23 08:53:12;;;;;;;8.95;2.50;;;31.00;65.20;;;;;;4905173;28;206881;-70
2022/06/23 08:55:54;;;;;;;9.63;3.17;;;31.10;64.90;;;;;;4910246;28;218982;-70
2022/06/23 08:58:47;;;;;;;7.90;2.88;;;31.10;62.80;;;;;;4962840;28;20047;-70
2022/06/23 09:01:20;;;;;;;8.52;2.80;;;31.30;59.90;;;;;;4903901;28;191500;-70
2022/06/23 09:04:12;;;;;;;10.05;2.90;;;31.30;61.20;;;;;;4968084;28;20132;-69
2022/06/23 09:06:53;;;;;;;8.52;2.42;;;31.40;60.60;;;;;;4894249;28;212425;-69
2022/06/23 09:09:45;;;;;;;9.10;2.55;;;31.60;60.20;;;;;;4951504;28;102977;-69
2022/06/23 09:13:00;;;;;;;10.13;2.60;;;31.90;58.40;;;;;;4908107;28;207649;-70
2022/06/23 09:15:39;;;;;;;8.98;2.35;;;32.00;56.70;;;;;;4906356;28;209426;-69
2022/06/23 09:18:22;;;;;;;7.65;2.70;;;32.00;58.70;;;;;;4962418;28;20517;-69
2022/06/23 09:20:54;;;;;;;9.55;2.60;;;32.20;55.60;;;;;;4910105;28;206740;-69
2022/06/23 09:23:57;;;;;;;7.50;2.50;;;32.30;56.60;;;;;;4964755;28;20069;-69
2022/06/23 09:26:41;;;;;;;10.88;2.67;;;32.70;56.40;;;;;;4909819;28;170075;-68
2022/06/23 09:29:10;;;;;;;9.68;2.40;;;32.90;55.60;;;;;;4943320;28;273366;-68
2022/06/23 09:32:05;;;;;;;11.38;2.42;;;32.90;54.20;;;;;;4926503;28;208410;-68
2022/06/23 09:35:13;;;;;;;13.13;2.45;;;33.10;55.00;;;;;;4933513;28;126881;-69
2022/06/23 09:38:11;;;;;;;9.30;2.20;;;33.30;53.40;;;;;;4900662;28;209943;-69
2022/06/23 09:40:43;;;;;;;8.52;2.22;;;33.50;51.50;;;;;;4857098;29;233968;-69
2022/06/23 09:43:43;;;;;;;8.07;2.20;;;33.60;52.10;;;;;;4911362;29;20497;-69
2022/06/23 09:46:28;;;;;;;;;;;33.90;49.00;;;;;;4860678;29;206416;-70
2022/06/23 09:49:05;;;;;;;9.50;2.38;;;34.40;50.20;;;;;;4927339;29;19973;-70
2022/06/23 09:51:58;;;;;;;7.72;2.10;;;35.20;49.60;;;;;;4876127;28;152058;-70
2022/06/23 09:54:27;;;;;;;7.60;2.08;;;35.40;45.60;;;;;;4870889;29;213735;-69
2022/06/23 09:56:53;;;;;;;8.82;2.03;;;35.10;47.20;;;;;;4836480;29;208298;-70
2022/06/23 09:59:38;;;;;;;8.73;2.00;;;35.20;47.70;;;;;;4877467;29;140956;-70
2022/06/23 10:02:20;;;;;;;7.30;1.90;;;35.40;46.00;;;;;;4826856;29;227054;-70
2022/06/23 10:05:05;;;;;;;8.82;2.30;;;35.40;47.40;;;;;;4867212;29;137498;-70
2022/06/23 10:07:43;;;;;;;9.82;2.35;;;35.60;46.90;;;;;;4824288;29;210155;-70
2022/06/23 10:10:24;;;;;;;8.43;1.80;;;35.60;46.00;;;;;;4883559;29;156713;-70
2022/06/23 10:13:27;;;;;;;6.90;1.75;;;35.60;47.10;;;;;;4786565;29;205642;-70
2022/06/23 10:16:01;;;;;;;9.48;2.15;;;35.60;44.50;;;;;;4819833;28;213048;-70
2022/06/23 10:18:44;;;;;;;10.98;1.98;;;35.70;45.80;;;;;;4911851;29;20060;-71
2022/06/23 10:21:24;;;;;;;9.20;1.90;;;35.80;45.00;;;;;;4855722;28;209006;-69
2022/06/23 10:24:13;;;;;;;9.23;1.80;;;35.90;44.70;;;;;;4916915;29;20437;-70
2022/06/23 10:27:10;;;;;;;8.45;1.95;;;36.00;44.80;;;;;;4832111;29;212337;-70
2022/06/23 10:29:45;;;;;;;8.73;1.88;;;36.10;43.30;;;;;;4884274;29;177549;-70
2022/06/23 10:32:28;;;;;;;8.65;1.95;;;36.10;41.70;;;;;;4926785;28;206755;-70
2022/06/23 10:35:32;;;;;;;8.35;1.70;;;36.30;43.20;;;;;;4948803;28;86506;-70
2022/06/23 10:38:01;;;;;;;8.77;1.60;;;36.50;42.50;;;;;;4942436;28;207096;-70
2022/06/23 10:40:46;;;;;;;9.13;1.77;;;36.60;43.10;;;;;;4919990;28;253976;-70
2022/06/23 10:43:38;;;;;;;6.80;1.58;;;36.60;42.20;;;;;;4981625;28;20047;-70
2022/06/23 10:46:14;;;;;;;10.32;2.08;;;36.70;42.10;;;;;;4910300;28;258638;-70
2022/06/23 10:48:55;;;;;;;10.15;1.75;;;36.60;40.20;;;;;;4937318;28;20491;-70
2022/06/23 10:51:39;;;;;;;8.77;1.90;;;36.50;42.20;;;;;;4929392;28;272341;-70
2022/06/23 10:54:12;;;;;;;9.20;1.70;;;36.50;40.20;;;;;;4963707;28;267237;-70
2022/06/23 10:57:08;;;;;;;14.20;2.28;;;36.60;42.40;;;;;;4914083;28;204735;-70
2022/06/23 10:59:57;;;;;;;7.75;1.88;;;36.90;42.00;;;;;;4972387;28;203121;-71
2022/06/23 11:02:35;;;;;;;8.23;1.75;;;37.10;41.60;;;;;;4944596;28;207156;-70
2022/06/23 11:05:29;;;;;;;9.10;1.88;;;37.30;41.60;;;;;;4944019;28;281090;-70
2022/06/23 11:08:19;;;;;;;9.38;1.60;;;37.40;41.20;;;;;;4915313;28;219055;-70
2022/06/23 11:10:54;;;;;;;7.63;1.70;;;37.30;41.00;;;;;;4920585;28;257774;-70
2022/06/23 11:13:32;;;;;;;12.10;1.80;;;37.30;41.20;;;;;;4985257;28;20074;-70
2022/06/23 11:16:36;;;;;;;7.83;1.80;;;37.20;41.50;;;;;;4917828;28;252065;-70
2022/06/23 11:19:24;;;;;;;7.82;2.10;;;37.50;41.00;;;;;;4982240;28;20061;-70
2022/06/23 11:22:00;;;;;;;7.18;1.90;;;37.70;40.50;;;;;;4923985;28;206270;-70
2022/06/23 11:25:00;;;;;;;8.30;1.83;;;37.80;39.90;;;;;;4960791;28;256017;-70
2022/06/23 11:27:38;;;;;;;9.23;2.05;;;37.90;39.00;;;;;;4915578;28;206366;-70
2022/06/23 11:30:15;;;;;;;8.05;1.73;;;37.80;40.20;;;;;;4956948;28;205715;-69
2022/06/23 11:33:31;;;;;;;8.10;1.77;;;38.00;40.70;;;;;;4924960;28;198309;-71
2022/06/23 11:36:38;;;;;;;6.53;1.98;;;38.40;39.80;;;;;;4886336;28;218195;-71
2022/06/23 11:39:16;;;;;;;7.70;1.70;;;38.60;40.20;;;;;;4904392;29;147362;-70
2022/06/23 11:42:07;;;;;;;6.70;1.75;;;39.00;39.00;;;;;;4856956;29;206869;-70
2022/06/23 11:44:36;;;;;;;7.63;1.60;;;39.10;38.50;;;;;;4893360;29;212417;-71
2022/06/23 11:47:07;;;;;;;6.50;1.70;;;39.30;39.50;;;;;;4871719;29;206086;-71
2022/06/23 11:49:52;;;;;;;6.30;1.48;;;39.60;38.50;;;;;;4898613;29;88451;-70
2022/06/23 11:52:37;;;;;;;6.97;1.55;;;39.80;39.70;;;;;;4852994;29;208564;-71
2022/06/23 11:55:17;;;;;;;7.40;1.58;;;40.20;38.00;;;;;;4893543;29;128807;-71
2022/06/23 11:58:11;;;;;;;9.75;1.75;;;40.20;36.90;;;;;;4850420;29;210641;-70
2022/06/23 12:00:53;;;;;;;9.30;1.70;;;40.00;36.10;;;;;;4860472;29;214324;-71
2022/06/23 12:03:28;;;;;;;7.80;1.70;;;39.90;37.00;;;;;;4913530;29;20052;-71
2022/06/23 12:06:26;;;;;;;8.07;1.50;;;40.00;37.30;;;;;;4823747;29;242727;-71
2022/06/23 12:09:49;;;;;;;7.25;1.30;;;40.10;36.60;;;;;;4909740;29;20052;-70
2022/06/23 12:12:16;;;;;;;6.82;1.35;;;40.20;36.80;;;;;;4763831;29;206397;-71
2022/06/23 12:14:43;;;;;;;8.30;1.40;;;40.30;37.10;;;;;;4861807;29;103019;-70
2022/06/23 12:17:29;;;;;;;7.40;1.52;;;40.30;37.00;;;;;;4854278;28;210901;-70
2022/06/23 12:20:07;;;;;;;8.32;1.75;;;40.20;34.40;;;;;;4903232;29;42314;-71
2022/06/23 12:22:41;;;;;;;9.18;1.60;;;39.90;35.60;;;;;;4866132;29;213650;-70
2022/06/23 12:25:23;;;;;;;5.70;1.45;;;39.80;36.60;;;;;;4902842;29;20913;-71
2022/06/23 12:28:15;;;;;;;6.43;1.50;;;40.00;35.80;;;;;;4861680;29;90856;-71
2022/06/23 12:31:05;;;;;;;8.63;1.42;;;40.30;36.10;;;;;;4853264;29;213837;-72
2022/06/23 12:33:42;;;;;;;7.78;1.50;;;40.60;35.40;;;;;;4911255;29;20059;-71
2022/06/23 12:36:35;;;;;;;6.95;1.50;;;40.50;33.20;;;;;;4856193;29;252009;-70
2022/06/23 12:39:18;;;;;;;7.78;1.48;;;40.20;34.90;;;;;;4911480;29;20070;-70
2022/06/23 12:41:52;;;;;;;6.53;1.40;;;40.30;34.90;;;;;;4853123;28;176674;-71
2022/06/23 12:44:49;;;;;;;8.57;1.58;;;40.40;34.50;;;;;;4950633;28;269428;-71
2022/06/23 12:47:24;;;;;;;6.53;1.50;;;40.40;34.10;;;;;;4922987;28;220559;-71
2022/06/23 12:50:19;;;;;;;5.70;1.40;;;40.40;34.60;;;;;;4938275;28;125782;-71
2022/06/23 12:52:50;;;;;;;13.68;1.50;;;40.40;32.40;;;;;;4912073;28;206828;-71
2022/06/23 12:55:41;;;;;;;6.97;1.25;;;40.20;34.10;;;;;;4933429;28;165325;-72
2022/06/23 12:58:19;;;;;;;7.57;1.63;;;40.30;34.20;;;;;;4939866;28;205136;-72
2022/06/23 13:01:00;;;;;;;7.03;1.50;;;40.40;34.00;;;;;;4904405;28;217476;-71
2022/06/23 13:03:50;;;;;;;6.18;1.40;;;40.40;34.60;;;;;;4960325;28;20142;-71
2022/06/23 13:06:54;;;;;;;6.35;1.45;;;40.60;34.90;;;;;;4893136;28;217834;-71
2022/06/23 13:09:29;;;;;;;7.95;1.40;;;40.20;34.20;;;;;;4892717;29;55354;-71
2022/06/23 13:11:55;;;;;;;6.60;1.40;;;40.30;35.40;;;;;;4867038;29;170046;-73
2022/06/23 13:14:45;;;;;;;7.95;1.63;;;40.30;34.60;;;;;;4891349;29;227228;-71
2022/06/23 13:17:32;;;;;;;9.90;1.65;;;40.10;34.30;;;;;;4852065;29;207610;-71
2022/06/23 13:20:19;;;;;;;9.93;1.58;;;40.20;34.00;;;;;;4892634;29;171434;-72
2022/06/23 13:23:02;;;;;;;7.53;1.70;;;40.50;34.00;;;;;;4857317;29;88966;-72
2022/06/23 13:25:34;;;;;;;7.30;1.38;;;40.60;33.90;;;;;;4869938;28;206901;-72
2022/06/23 13:28:05;;;;;;;8.23;1.50;;;40.70;34.30;;;;;;4910020;29;20481;-72
2022/06/23 13:30:46;;;;;;;7.75;1.70;;;41.00;34.60;;;;;;4871591;28;230715;-72
2022/06/23 13:33:37;;;;;;;8.75;1.60;;;41.30;33.30;;;;;;4917923;29;20052;-73
2022/06/23 13:36:12;;;;;;;6.07;1.42;;;40.60;33.00;;;;;;4867790;28;253597;-72
2022/06/23 13:38:51;;;;;;;7.15;1.58;;;40.40;34.20;;;;;;4918608;29;20557;-72
2022/06/23 13:41:30;;;;;;;5.45;1.50;;;40.60;33.20;;;;;;4855840;29;207182;-71
2022/06/23 13:44:15;;;;;;;;;;;40.60;33.60;;;;;;4918592;29;20079;-72
2022/06/23 13:47:19;;;;;;;6.93;1.60;;;40.40;32.30;;;;;;4903322;28;207670;-72
2022/06/23 13:49:55;;;;;;;8.25;1.73;;;40.20;34.00;;;;;;4956835;28;260331;-70